This is the latest recevied weather packets stored in our database for station/object IT9GFD-13. If no packets are shown the sender has not sent any weather packets the latest 10 day(s).
| Time | Temp. | Humidity | Pressure | Rain* | Wind** | Luminosity | Snow |
|---|---|---|---|---|---|---|---|
| 1777552217 | 21.67° C | 54% | 1016.2 hPa | 0 mm | - | - | - |
| 1777548617 | 21.11° C | 63% | 1017.7 hPa | 0 mm | - | - | - |
| 1777548021 | 20.56° C | 63% | 1017.4 hPa | 0 mm | - | - | - |
| 1777546237 | 20° C | 65% | 1017.2 hPa | 0 mm | - | - | - |
| 1777545617 | 19.44° C | 68% | 1017.1 hPa | 0 mm | - | - | - |
| 1777540817 | 19.44° C | 76% | 1017.7 hPa | 0 mm | - | - | - |
| 1777537817 | 20° C | 73% | 1017.8 hPa | 0 mm | - | - | - |
| 1777535417 | 19.44° C | 71% | 1017.6 hPa | 0 mm | - | - | - |
| 1777529416 | 18.89° C | 70% | 1016.7 hPa | 0 mm | - | - | - |
| 1777528217 | 17.22° C | 73% | 1016.6 hPa | 0 mm | - | - | - |
| 1777524617 | 16.67° C | 69% | 1016.8 hPa | 0 mm | - | - | - |
| 1777524036 | 16.67° C | 68% | 1016.8 hPa | 0 mm | - | - | - |
| 1777520416 | 17.22° C | 65% | 1016.6 hPa | 0 mm | - | - | - |
| 1777518636 | 17.22° C | 66% | 1016.7 hPa | 0 mm | - | - | - |
| 1777516216 | 17.22° C | 69% | 1016.9 hPa | 0 mm | - | - | - |
| 1777515616 | 17.22° C | 70% | 1016.6 hPa | 0 mm | - | - | - |
| 1777496116 | 17.78° C | 73% | 1017.9 hPa | 0 mm | - | - | - |
| 1777490118 | 17.78° C | 73% | 1017.6 hPa | 0 mm | - | - | - |
| 1777480216 | 20° C | 64% | 1016.4 hPa | 0 mm | - | - | - |
| 1777474816 | 21.11° C | 45% | 1016 hPa | 0 mm | - | - | - |
| 1777473016 | 21.67° C | 50% | 1015.6 hPa | 0 mm | - | - | - |
| 1777471816 | 21.67° C | 45% | 1016 hPa | 0 mm | - | - | - |
| 1777459216 | 20.56° C | 61% | 1017.9 hPa | 0 mm | - | - | - |
| 1777454416 | 21.11° C | 58% | 1017.7 hPa | 0 mm | - | - | - |
| 1777453236 | 20.56° C | 56% | 1017.7 hPa | 0 mm | - | - | - |
* Rain latest hour (hover to see other rain measurements)
** Current wind speed in m/s (hover to see current wind gust speed)